Time;durP1;ratioP1;P1;durP2;ratioP2;P2;SDS_P1;SDS_P2;PMS_P1;PMS_P2;Temp;Humidity;BMP_temperature;BMP_pressure;BME280_temperature;BME280_humidity;BME280_pressure;Samples;Min_cycle;Max_cycle;Signal;HPM_P1;HPM_P2
2022/10/07 00:00:26;;;;;;;659.53;622.30;;;;;;;;;;4994401;28;20411;-70
2022/10/07 00:02:52;;;;;;;610.83;577.23;;;;;;;;;;4993820;28;20467;-69
2022/10/07 00:05:17;;;;;;;611.40;577.57;;;14.90;29.70;;;;;;4994079;28;20416;-69
2022/10/07 00:07:43;;;;;;;524.87;497.23;;;15.00;29.00;;;;;;4992772;28;20454;-69
2022/10/07 00:10:08;;;;;;;565.00;533.97;;;14.90;28.70;;;;;;4994096;28;20634;-70
2022/10/07 00:12:34;;;;;;;569.70;538.40;;;14.90;29.10;;;;;;4993668;28;20204;-70
2022/10/07 00:14:59;;;;;;;561.63;531.77;;;14.70;30.00;;;;;;4994279;28;20301;-70
2022/10/07 00:17:25;;;;;;;546.33;517.57;;;14.50;30.70;;;;;;4993705;28;20203;-70
2022/10/07 00:19:50;;;;;;;558.93;528.93;;;14.60;30.90;;;;;;4993831;28;20181;-71
2022/10/07 00:22:16;;;;;;;549.77;521.07;;;14.50;31.20;;;;;;4993635;28;20277;-70
2022/10/07 00:24:41;;;;;;;508.37;481.33;;;14.20;33.00;;;;;;4994608;28;20246;-70
2022/10/07 00:27:07;;;;;;;575.23;544.67;;;14.10;34.40;;;;;;4994585;28;20259;-70
2022/10/07 00:29:32;;;;;;;566.20;535.50;;;14.10;34.60;;;;;;4994391;28;20184;-71
2022/10/07 00:31:58;;;;;;;545.33;516.70;;;14.10;34.60;;;;;;4993497;28;20273;-70
2022/10/07 00:34:24;;;;;;;532.77;505.63;;;14.10;34.60;;;;;;4993834;28;20215;-70
2022/10/07 00:36:49;;;;;;;548.00;520.20;;;13.90;35.30;;;;;;4993302;28;20215;-70
2022/10/07 00:39:16;;;;;;;559.57;530.67;;;13.80;36.20;;;;;;4992313;28;20283;-70
2022/10/07 00:41:49;;;;;;;603.83;570.87;;;13.80;36.60;;;;;;4993209;28;20175;-70
2022/10/07 00:44:38;;;;;;;565.17;536.13;;;13.80;36.30;;;;;;4993539;28;20423;-70
2022/10/07 00:47:12;;;;;;;560.80;532.17;;;13.80;35.90;;;;;;4992292;28;20680;-70
2022/10/07 00:50:00;;;;;;;522.40;495.80;;;13.80;35.70;;;;;;4993198;28;20417;-70
2022/10/07 00:52:30;;;;;;;525.80;499.63;;;13.80;35.70;;;;;;4992434;28;20954;-70
2022/10/07 00:54:58;;;;;;;557.53;528.73;;;13.70;35.60;;;;;;4991579;28;20465;-71
2022/10/07 00:57:26;;;;;;;537.60;509.50;;;13.80;35.90;;;;;;4993509;28;20493;-71
2022/10/07 00:59:54;;;;;;;509.00;482.60;;;13.90;34.40;;;;;;4992721;28;20430;-71
2022/10/07 01:02:22;;;;;;;508.90;482.10;;;13.90;34.40;;;;;;4992904;28;20412;-72
2022/10/07 01:04:48;;;;;;;703.03;662.63;;;13.80;34.30;;;;;;4992838;28;20769;-71
2022/10/07 01:07:17;;;;;;;501.10;475.03;;;13.80;34.40;;;;;;4991556;28;20447;-71
2022/10/07 01:09:42;;;;;;;536.63;507.53;;;13.90;34.40;;;;;;4992931;28;20427;-71
2022/10/07 01:12:30;;;;;;;550.30;519.97;;;14.00;33.90;;;;;;4992631;28;20965;-71
2022/10/07 01:15:30;;;;;;;657.43;620.03;;;14.20;32.80;;;;;;4992926;28;20273;-70
2022/10/07 01:18:10;;;;;;;534.13;505.53;;;14.20;32.30;;;;;;4989764;28;20816;-71
2022/10/07 01:20:47;;;;;;;538.53;510.00;;;14.30;32.10;;;;;;4992724;28;20850;-70
2022/10/07 01:23:31;;;;;;;575.30;543.53;;;14.30;31.10;;;;;;4991526;28;20482;-69
2022/10/07 01:26:10;;;;;;;558.63;528.27;;;14.20;31.90;;;;;;4991425;28;20515;-70
2022/10/07 01:28:38;;;;;;;656.47;619.83;;;14.10;31.90;;;;;;4992522;28;20458;-71
2022/10/07 01:31:06;;;;;;;568.40;537.73;;;14.00;32.90;;;;;;4992516;28;20493;-70
2022/10/07 01:33:34;;;;;;;532.87;505.07;;;13.90;33.30;;;;;;4992483;28;20469;-70
2022/10/07 01:36:08;;;;;;;538.03;509.40;;;13.80;34.30;;;;;;4992490;28;20423;-70
2022/10/07 01:38:38;;;;;;;556.20;525.93;;;13.80;34.30;;;;;;5027965;23;20489;-68
2022/10/07 01:41:13;;;;;;;548.20;518.73;;;13.80;34.30;;;;;;5012152;28;20403;-68
2022/10/07 01:43:40;;;;;;;566.60;535.53;;;14.00;34.50;;;;;;5012335;28;20438;-68
2022/10/07 01:46:08;;;;;;;536.33;508.10;;;13.90;33.70;;;;;;5012431;28;20416;-68
2022/10/07 01:48:34;;;;;;;561.60;532.50;;;14.00;33.00;;;;;;5012238;28;20470;-68
2022/10/07 01:51:01;;;;;;;510.83;484.37;;;13.80;33.70;;;;;;5011918;28;20923;-67
2022/10/07 01:53:44;;;;;;;451.63;427.40;;;13.80;34.40;;;;;;5010919;28;20176;-68
2022/10/07 01:56:25;;;;;;;588.27;556.93;;;13.80;34.30;;;;;;5012158;28;20422;-68
2022/10/07 01:59:26;;;;;;;483.90;459.00;;;13.80;34.30;;;;;;5012001;28;20433;-68
2022/10/07 02:01:51;;;;;;;513.97;486.70;;;13.70;34.20;;;;;;5008745;28;20419;-67
2022/10/07 02:04:44;;;;;;;568.73;538.00;;;13.80;35.00;;;;;;5014242;28;20492;-68
2022/10/07 02:07:27;;;;;;;531.17;503.63;;;13.70;34.20;;;;;;5016091;28;20176;-68
2022/10/07 02:10:08;;;;;;;569.77;540.77;;;13.60;35.20;;;;;;5016109;28;20456;-68
2022/10/07 02:12:50;;;;;;;560.90;531.10;;;13.60;35.10;;;;;;5014540;28;20426;-68
2022/10/07 02:15:56;;;;;;;535.33;507.57;;;13.60;34.60;;;;;;5016027;28;20760;-68
2022/10/07 02:18:22;;;;;;;610.07;578.23;;;13.50;35.30;;;;;;5016279;28;20442;-68
2022/10/07 02:20:50;;;;;;;528.47;500.60;;;13.50;35.40;;;;;;5015592;28;20502;-68
2022/10/07 02:23:20;;;;;;;527.10;497.43;;;13.60;35.20;;;;;;5015881;28;20565;-67
2022/10/07 02:25:48;;;;;;;574.60;542.67;;;13.60;34.10;;;;;;5016143;28;20415;-68
2022/10/07 02:28:19;;;;;;;576.53;544.83;;;13.60;34.90;;;;;;5015676;28;20528;-68
2022/10/07 02:30:49;;;;;;;546.50;518.13;;;13.50;35.00;;;;;;5015509;28;20496;-68
2022/10/07 02:33:16;;;;;;;549.60;522.03;;;13.60;34.70;;;;;;5015790;28;20410;-68
2022/10/07 02:35:52;;;;;;;576.40;544.97;;;13.50;34.30;;;;;;5015519;28;20463;-68
2022/10/07 02:38:18;;;;;;;624.33;588.20;;;13.50;34.80;;;;;;5014152;28;20509;-68
2022/10/07 02:40:50;;;;;;;615.90;580.83;;;13.60;34.20;;;;;;5013956;28;20469;-68
2022/10/07 02:43:27;;;;;;;519.03;491.50;;;13.70;34.30;;;;;;5015454;28;20418;-68
2022/10/07 02:46:08;;;;;;;641.43;605.37;;;13.80;34.30;;;;;;5015379;28;20406;-68
2022/10/07 02:48:42;;;;;;;571.33;540.40;;;13.70;34.20;;;;;;5015528;28;20440;-68
2022/10/07 02:51:17;;;;;;;565.70;534.47;;;13.60;34.20;;;;;;5013899;28;20794;-68
2022/10/07 02:53:44;;;;;;;553.60;524.20;;;13.50;35.00;;;;;;5015129;28;20414;-68
2022/10/07 02:56:11;;;;;;;562.50;533.20;;;13.60;34.10;;;;;;5015289;28;20409;-68
2022/10/07 02:58:43;;;;;;;585.53;552.67;;;13.40;35.40;;;;;;5015159;28;20492;-68
2022/10/07 03:01:11;;;;;;;533.87;504.43;;;13.40;35.70;;;;;;5013662;28;20532;-68
2022/10/07 03:03:37;;;;;;;645.30;608.50;;;13.40;35.90;;;;;;5015202;28;20440;-68
2022/10/07 03:06:03;;;;;;;578.80;548.33;;;13.40;35.40;;;;;;5015063;28;20445;-68
2022/10/07 03:08:29;;;;;;;525.83;497.53;;;13.20;36.40;;;;;;5014981;28;20218;-68
2022/10/07 03:10:55;;;;;;;511.43;485.63;;;13.20;37.40;;;;;;5014680;28;20418;-68
2022/10/07 03:13:21;;;;;;;568.30;537.23;;;13.10;38.00;;;;;;5014834;28;20245;-68
2022/10/07 03:15:47;;;;;;;640.73;606.63;;;13.10;38.40;;;;;;5013518;28;20268;-68
2022/10/07 03:18:25;;;;;;;550.73;521.40;;;13.20;37.90;;;;;;5014890;28;20446;-68
2022/10/07 03:20:52;;;;;;;486.77;461.93;;;13.20;37.20;;;;;;5013141;28;20420;-68
2022/10/07 03:23:18;;;;;;;647.30;612.73;;;13.20;37.00;;;;;;5014874;28;20418;-68
2022/10/07 03:25:51;;;;;;;648.63;612.07;;;13.20;36.70;;;;;;5014759;28;20514;-68
2022/10/07 03:28:21;;;;;;;588.37;555.40;;;13.20;36.90;;;;;;5013355;28;20816;-68
2022/10/07 03:30:48;;;;;;;693.97;652.80;;;13.20;36.50;;;;;;5014536;28;20429;-68
2022/10/07 03:33:15;;;;;;;504.10;478.53;;;13.20;36.50;;;;;;5014530;28;20462;-68
2022/10/07 03:35:40;;;;;;;527.67;500.23;;;13.10;36.30;;;;;;5014456;28;20465;-68
2022/10/07 03:38:07;;;;;;;675.13;635.63;;;13.20;36.00;;;;;;5013002;28;20465;-67
2022/10/07 03:40:34;;;;;;;572.67;543.00;;;13.10;36.00;;;;;;5014417;28;20230;-68
2022/10/07 03:42:59;;;;;;;476.53;452.40;;;13.00;35.90;;;;;;5012693;28;20427;-68
2022/10/07 03:45:25;;;;;;;668.67;630.63;;;12.90;37.20;;;;;;5014323;28;20421;-68
2022/10/07 03:47:51;;;;;;;682.07;643.40;;;12.70;37.90;;;;;;5012864;28;20210;-68
2022/10/07 03:50:16;;;;;;;545.17;515.90;;;12.80;37.30;;;;;;5014208;28;20196;-68
2022/10/07 03:52:44;;;;;;;576.50;544.27;;;12.80;36.20;;;;;;5013958;28;20267;-68
2022/10/07 03:55:10;;;;;;;544.27;515.00;;;12.70;35.90;;;;;;5014118;28;20303;-68
2022/10/07 03:57:52;;;;;;;504.50;478.53;;;12.70;36.30;;;;;;5014100;28;20454;-68
2022/10/07 04:00:20;;;;;;;489.63;464.37;;;12.60;37.40;;;;;;5014023;28;20411;-68
2022/10/07 04:02:49;;;;;;;510.20;483.47;;;12.30;39.10;;;;;;5013798;28;20908;-68
2022/10/07 04:05:16;;;;;;;550.53;522.03;;;12.20;39.50;;;;;;5013934;28;20415;-68
2022/10/07 04:07:43;;;;;;;616.93;582.90;;;12.30;39.10;;;;;;5013914;28;20482;-68
2022/10/07 04:10:10;;;;;;;566.00;536.27;;;12.20;38.60;;;;;;5013920;28;20446;-67
2022/10/07 04:12:36;;;;;;;559.40;529.80;;;12.20;39.10;;;;;;5013577;28;20627;-68
2022/10/07 04:15:02;;;;;;;657.77;621.80;;;12.30;38.20;;;;;;5012360;28;20518;-67
2022/10/07 04:17:28;;;;;;;554.57;525.40;;;12.20;38.10;;;;;;5013842;28;20199;-68
2022/10/07 04:19:54;;;;;;;544.83;515.33;;;12.10;38.00;;;;;;5012455;28;20420;-67
2022/10/07 04:22:19;;;;;;;547.30;517.47;;;12.00;38.00;;;;;;5013517;28;20190;-68
2022/10/07 04:25:32;;;;;;;581.67;551.63;;;12.00;38.00;;;;;;5012449;28;20188;-68
2022/10/07 04:27:33;;;;;;;531.93;504.83;;;12.10;38.00;;;;;;5012910;28;20208;-68
2022/10/07 04:29:59;;;;;;;621.67;587.43;;;12.10;37.20;;;;;;5013561;28;20456;-68
2022/10/07 04:32:24;;;;;;;586.20;554.30;;;12.10;36.30;;;;;;5013199;28;20176;-68
2022/10/07 04:34:50;;;;;;;659.67;623.37;;;12.10;37.10;;;;;;5012045;28;20276;-68
2022/10/07 04:37:15;;;;;;;539.27;511.90;;;12.00;36.70;;;;;;5013181;28;20184;-68
2022/10/07 04:39:41;;;;;;;576.83;546.83;;;11.90;37.20;;;;;;5013325;28;20613;-68
2022/10/07 04:42:07;;;;;;;634.37;599.63;;;11.80;36.50;;;;;;5012941;28;20191;-67
2022/10/07 04:44:32;;;;;;;560.57;529.90;;;11.70;36.90;;;;;;5013184;28;20192;-68
2022/10/07 04:46:58;;;;;;;550.10;522.23;;;11.70;37.70;;;;;;5011824;28;20191;-68
2022/10/07 04:49:24;;;;;;;534.97;506.87;;;11.60;37.60;;;;;;5011655;28;20200;-67
2022/10/07 04:51:51;;;;;;;560.83;531.53;;;11.60;38.50;;;;;;5011526;28;20435;-68
2022/10/07 04:54:17;;;;;;;651.03;614.73;;;11.70;37.70;;;;;;5012921;28;20525;-69
2022/10/07 04:56:43;;;;;;;565.83;536.10;;;11.70;37.40;;;;;;5012921;28;20418;-68
2022/10/07 04:59:08;;;;;;;555.33;525.37;;;11.80;37.70;;;;;;5012734;28;20430;-67
2022/10/07 05:01:34;;;;;;;530.43;502.70;;;11.80;36.40;;;;;;5011265;28;20182;-68
2022/10/07 05:03:59;;;;;;;561.43;530.83;;;11.80;36.50;;;;;;5012692;28;20213;-67
2022/10/07 05:06:25;;;;;;;585.33;554.40;;;11.80;35.50;;;;;;5011698;28;20271;-68
2022/10/07 05:08:53;;;;;;;488.90;463.93;;;11.70;35.80;;;;;;5012613;28;20288;-68
2022/10/07 05:11:18;;;;;;;725.13;684.67;;;11.70;37.00;;;;;;5012284;28;20645;-68
2022/10/07 05:13:44;;;;;;;506.60;480.87;;;11.60;36.10;;;;;;5012533;28;20427;-67
2022/10/07 05:16:10;;;;;;;513.03;486.07;;;11.50;36.30;;;;;;5012534;28;20720;-67
2022/10/07 05:18:37;;;;;;;552.67;524.53;;;11.30;37.30;;;;;;5012290;28;20288;-67
2022/10/07 05:21:05;;;;;;;559.87;531.10;;;11.30;38.60;;;;;;5012092;28;20447;-68
2022/10/07 05:23:30;;;;;;;500.17;474.77;;;11.30;37.70;;;;;;5012408;28;20417;-67
2022/10/07 05:25:58;;;;;;;568.37;538.07;;;11.30;37.70;;;;;;5012284;28;20866;-66
2022/10/07 05:28:23;;;;;;;563.20;534.70;;;11.20;37.90;;;;;;5012390;28;20561;-69
2022/10/07 05:30:59;;;;;;;558.17;529.37;;;11.30;37.40;;;;;;5012103;28;20415;-69
2022/10/07 05:33:24;;;;;;;482.80;458.27;;;11.30;38.50;;;;;;5010976;28;20232;-66
2022/10/07 05:35:50;;;;;;;451.67;428.57;;;11.20;37.90;;;;;;5012091;28;20470;-70
2022/10/07 05:38:15;;;;;;;612.40;579.77;;;11.10;38.60;;;;;;5010584;28;20759;-66
2022/10/07 05:40:41;;;;;;;587.57;557.03;;;11.20;38.60;;;;;;5009998;28;20180;-68
2022/10/07 05:43:09;;;;;;;398.67;378.53;;;11.30;38.20;;;;;;5011997;28;20180;-67
2022/10/07 05:45:35;;;;;;;668.57;632.13;;;11.40;37.50;;;;;;5010747;28;20238;-67
2022/10/07 05:48:00;;;;;;;581.27;551.67;;;11.30;38.50;;;;;;5011950;28;20482;-67
2022/10/07 05:50:26;;;;;;;692.30;654.20;;;11.30;38.70;;;;;;5012025;28;20547;-67
2022/10/07 05:52:51;;;;;;;617.33;583.03;;;11.30;38.90;;;;;;5011433;28;20194;-67
2022/10/07 05:55:17;;;;;;;638.20;603.93;;;11.30;39.20;;;;;;5011688;28;20298;-67
2022/10/07 05:57:43;;;;;;;571.37;540.60;;;11.30;39.60;;;;;;5011642;28;20579;-67
2022/10/07 06:00:09;;;;;;;602.70;569.63;;;11.30;40.00;;;;;;5011888;28;20268;-68
2022/10/07 06:02:37;;;;;;;516.47;490.23;;;11.40;39.30;;;;;;5010040;28;20598;-67
2022/10/07 06:05:03;;;;;;;481.80;458.33;;;11.20;40.30;;;;;;5011849;28;20431;-67
2022/10/07 06:07:29;;;;;;;545.87;517.97;;;11.30;41.30;;;;;;5011701;28;20496;-67
2022/10/07 06:15:23;;;;;;;537.53;508.97;;;;;;;;;;5012115;28;20477;-67
2022/10/07 06:17:48;;;;;;;505.70;480.73;;;11.60;47.20;;;;;;5011903;28;20431;-67
2022/10/07 06:20:14;;;;;;;614.50;583.90;;;11.70;44.10;;;;;;5010642;28;20430;-67
2022/10/07 06:22:40;;;;;;;597.90;567.37;;;11.60;52.90;;;;;;5011524;28;20192;-67
2022/10/07 06:25:06;;;;;;;648.00;612.93;;;12.00;43.10;;;;;;5011878;28;20190;-67
2022/10/07 06:27:33;;;;;;;618.60;586.03;;;12.20;41.30;;;;;;4997998;28;20216;-67
2022/10/07 06:29:59;;;;;;;726.60;685.60;;;;;;;;;;5003570;28;20632;-67
2022/10/07 06:32:25;;;;;;;553.17;524.93;;;12.40;38.70;;;;;;5007210;28;20440;-67
2022/10/07 06:34:50;;;;;;;629.90;594.97;;;12.50;39.30;;;;;;5007502;28;20477;-67
2022/10/07 06:37:16;;;;;;;503.97;477.83;;;;;;;;;;4989465;28;20266;-67
2022/10/07 06:39:42;;;;;;;663.13;624.63;;;12.70;35.70;;;;;;4989616;28;20193;-66
2022/10/07 06:42:08;;;;;;;508.27;482.63;;;12.70;37.70;;;;;;4989216;28;20430;-67
2022/10/07 06:44:33;;;;;;;475.87;451.07;;;12.70;37.20;;;;;;5004239;28;20192;-67
2022/10/07 06:46:59;;;;;;;513.37;486.27;;;12.40;37.70;;;;;;5008176;28;20741;-67
2022/10/07 06:49:24;;;;;;;494.00;468.20;;;12.40;38.30;;;;;;5007265;28;20231;-67
2022/10/07 06:51:50;;;;;;;498.57;470.43;;;12.50;38.00;;;;;;5011342;28;20245;-68
2022/10/07 06:54:16;;;;;;;534.50;506.10;;;12.50;37.90;;;;;;5010094;28;20203;-68
2022/10/07 06:56:42;;;;;;;578.93;547.53;;;;;;;;;;5011488;28;20186;-68
2022/10/07 06:59:08;;;;;;;524.70;494.60;;;;;;;;;;5010202;28;20205;-67
2022/10/07 07:01:34;;;;;;;571.93;541.50;;;13.20;33.20;;;;;;5010711;28;20433;-68
2022/10/07 07:04:00;;;;;;;606.23;570.70;;;13.20;34.50;;;;;;5009552;28;20513;-68
2022/10/07 07:06:25;;;;;;;549.80;518.80;;;13.30;33.30;;;;;;5012651;28;20270;-68
2022/10/07 07:08:54;;;;;;;557.07;525.93;;;13.50;32.10;;;;;;5003262;28;20619;-68
2022/10/07 07:11:35;;;;;;;610.57;575.30;;;13.70;31.70;;;;;;5000470;28;20199;-68
2022/10/07 07:14:03;;;;;;;553.67;522.67;;;13.80;30.70;;;;;;4991113;28;20473;-68
2022/10/07 07:16:30;;;;;;;569.60;536.93;;;14.00;30.80;;;;;;4995579;28;20474;-66
2022/10/07 07:19:00;;;;;;;579.20;545.80;;;14.20;30.70;;;;;;4992501;28;20447;-68
2022/10/07 07:21:27;;;;;;;630.13;590.97;;;;;;;;;;5011359;28;20431;-68
2022/10/07 07:23:53;;;;;;;571.37;538.20;;;14.40;29.20;;;;;;4989211;28;20505;-68
2022/10/07 07:26:19;;;;;;;504.27;476.00;;;14.60;29.10;;;;;;4992269;28;20439;-68
2022/10/07 07:28:51;;;;;;;547.67;516.33;;;14.60;29.10;;;;;;4992678;28;20870;-68
2022/10/07 07:31:17;;;;;;;597.43;562.07;;;14.80;28.30;;;;;;5011977;28;20203;-68
2022/10/07 07:33:42;;;;;;;526.57;496.83;;;14.90;27.80;;;;;;5008580;28;20418;-67
2022/10/07 07:36:14;;;;;;;500.53;472.60;;;15.00;28.00;;;;;;4991575;28;20638;-68
2022/10/07 07:38:39;;;;;;;574.20;540.30;;;15.10;27.30;;;;;;5016054;28;20668;-69
2022/10/07 07:41:05;;;;;;;555.90;524.07;;;15.20;26.90;;;;;;5029768;28;20454;-68
2022/10/07 07:43:30;;;;;;;555.03;522.57;;;15.40;26.30;;;;;;5029215;28;20187;-68
2022/10/07 07:45:59;;;;;;;537.57;506.80;;;15.50;26.40;;;;;;5009220;28;20287;-68
2022/10/07 07:48:25;;;;;;;560.87;528.27;;;;;;;;;;5009784;28;20207;-69
2022/10/07 07:50:50;;;;;;;581.00;547.37;;;15.70;25.30;;;;;;5006575;28;20427;-69
2022/10/07 07:53:16;;;;;;;533.43;503.07;;;15.80;25.70;;;;;;4990965;28;20423;-68
2022/10/07 07:55:55;;;;;;;571.13;537.43;;;16.00;25.70;;;;;;4989826;28;20236;-69
2022/10/07 07:58:23;;;;;;;564.93;530.77;;;16.10;24.30;;;;;;5005788;28;20287;-68
2022/10/07 08:01:02;;;;;;;598.83;562.77;;;16.20;24.30;;;;;;5008159;28;20454;-71
2022/10/07 08:03:28;;;;;;;561.87;529.03;;;16.30;23.40;;;;;;4995045;28;20419;-69
2022/10/07 08:05:58;;;;;;;556.00;522.87;;;16.30;23.20;;;;;;4992038;28;20470;-69
2022/10/07 08:08:23;;;;;;;567.03;534.03;;;16.40;23.20;;;;;;5010462;28;20553;-68
2022/10/07 08:10:49;;;;;;;675.63;632.13;;;16.50;23.30;;;;;;5009387;28;20506;-67
2022/10/07 08:13:15;;;;;;;594.17;554.67;;;16.70;22.90;;;;;;5010370;28;20215;-70
2022/10/07 08:15:40;;;;;;;558.40;525.40;;;16.80;22.90;;;;;;5009078;28;20215;-68
2022/10/07 08:18:07;;;;;;;616.07;575.73;;;16.90;21.50;;;;;;5007684;28;20217;-69
2022/10/07 08:20:35;;;;;;;531.37;497.50;;;16.90;22.20;;;;;;4994546;28;20189;-68
2022/10/07 08:23:02;;;;;;;601.00;563.73;;;17.00;21.80;;;;;;4989931;28;20422;-68
2022/10/07 08:25:27;;;;;;;541.63;507.67;;;17.10;22.00;;;;;;4989937;28;20482;-68
2022/10/07 08:27:54;;;;;;;587.80;550.80;;;17.20;21.80;;;;;;4989418;28;20440;-69
2022/10/07 08:30:19;;;;;;;588.80;551.93;;;17.30;20.90;;;;;;4989456;28;20187;-68
2022/10/07 08:32:45;;;;;;;570.53;534.93;;;17.40;20.80;;;;;;4989461;28;20424;-68
2022/10/07 08:35:10;;;;;;;584.43;547.13;;;17.60;20.80;;;;;;4988009;28;20204;-68
2022/10/07 08:37:36;;;;;;;546.37;511.57;;;17.70;20.10;;;;;;4819452;28;20248;-68
2022/10/07 08:40:02;;;;;;;563.43;527.03;;;17.90;19.90;;;;;;4728768;28;74855;-70
2022/10/07 08:42:37;;;;;;;523.77;490.83;;;18.10;19.60;;;;;;4909505;28;20275;-68
2022/10/07 08:45:07;;;;;;;648.47;605.47;;;18.60;17.90;;;;;;4989846;28;20423;-69
2022/10/07 08:47:39;;;;;;;867.50;799.10;;;;;;;;;;4988616;28;20443;-66
2022/10/07 08:50:07;;;;;;;623.10;578.35;;;19.20;17.30;;;;;;4987828;28;20193;-72
2022/10/07 08:52:43;;;;;;;777.90;716.42;;;19.80;15.50;;;;;;4990718;28;20420;-68
2022/10/07 08:55:44;;;;;;;583.20;543.27;;;19.90;14.60;;;;;;4990165;28;20214;-67
2022/10/07 08:58:29;;;;;;;598.53;555.53;;;19.90;14.70;;;;;;4989943;28;20438;-67
2022/10/07 09:01:33;;;;;;;559.67;521.00;;;19.90;15.10;;;;;;4989738;28;20416;-68
2022/10/07 09:04:09;;;;;;;553.60;515.30;;;19.80;15.10;;;;;;4990378;28;20423;-69
2022/10/07 09:06:43;;;;;;;628.40;581.77;;;20.10;14.80;;;;;;4989565;28;20997;-68
2022/10/07 09:09:17;;;;;;;577.73;536.80;;;19.80;14.30;;;;;;4990278;28;20518;-67
2022/10/07 09:11:46;;;;;;;524.33;489.73;;;19.60;15.00;;;;;;4970436;28;20427;-67
2022/10/07 09:14:40;;;;;;;557.17;521.43;;;19.40;15.80;;;;;;4977527;28;20941;-67
2022/10/07 09:17:15;;;;;;;620.17;575.67;;;19.40;16.10;;;;;;4986779;28;20486;-68
2022/10/07 09:19:45;;;;;;;566.63;527.43;;;19.80;15.40;;;;;;4988528;28;20424;-68
2022/10/07 09:22:20;;;;;;;469.97;442.57;;;19.30;15.70;;;;;;4990881;28;20911;-67
2022/10/07 09:24:48;;;;;;;517.30;485.87;;;19.30;16.00;;;;;;4989751;28;20497;-67
2022/10/07 09:27:16;;;;;;;556.27;522.30;;;19.00;15.80;;;;;;4988825;28;20435;-68
2022/10/07 09:29:42;;;;;;;576.03;538.47;;;18.80;15.70;;;;;;4986849;28;20434;-68
2022/10/07 09:32:17;;;;;;;636.03;592.63;;;18.80;16.50;;;;;;4989983;28;20423;-68
2022/10/07 09:34:43;;;;;;;538.57;504.53;;;18.80;15.90;;;;;;4990665;28;20462;-68
2022/10/07 09:37:18;;;;;;;674.17;626.03;;;19.00;16.50;;;;;;4988946;28;20442;-68
2022/10/07 09:39:45;;;;;;;557.30;522.33;;;19.10;15.90;;;;;;4988816;28;20854;-68
2022/10/07 09:42:41;;;;;;;540.83;507.00;;;19.00;15.80;;;;;;4988675;28;20502;-68
2022/10/07 09:45:24;;;;;;;579.30;540.30;;;19.20;16.00;;;;;;4970255;28;20483;-67
2022/10/07 09:47:52;;;;;;;546.13;510.27;;;19.30;16.10;;;;;;4970372;28;20453;-68
2022/10/07 09:50:41;;;;;;;581.03;540.40;;;19.40;15.10;;;;;;4984555;28;20519;-68
2022/10/07 09:53:24;;;;;;;498.40;468.73;;;19.40;16.10;;;;;;4974416;28;20432;-68
2022/10/07 09:55:52;;;;;;;469.10;441.47;;;19.70;14.80;;;;;;4988420;28;20469;-68
2022/10/07 09:58:25;;;;;;;575.33;534.50;;;19.60;14.90;;;;;;4992061;28;20439;-69
2022/10/07 10:00:59;;;;;;;580.87;540.67;;;19.60;14.50;;;;;;4992801;28;20916;-68
2022/10/07 10:03:33;;;;;;;656.87;608.97;;;19.40;15.00;;;;;;4991704;28;20787;-68
2022/10/07 10:06:01;;;;;;;529.90;496.53;;;19.50;14.30;;;;;;4992761;28;20404;-67
2022/10/07 10:08:31;;;;;;;512.33;479.17;;;19.50;15.30;;;;;;4992720;28;20463;-68
2022/10/07 10:11:00;;;;;;;499.30;468.10;;;19.50;15.10;;;;;;4992118;28;20412;-69
2022/10/07 10:13:28;;;;;;;558.90;521.97;;;19.30;14.90;;;;;;4992213;28;20447;-69
2022/10/07 10:15:54;;;;;;;659.30;611.90;;;19.30;14.80;;;;;;4991025;28;20491;-69
2022/10/07 10:18:31;;;;;;;808.30;736.10;;;19.50;14.70;;;;;;4992008;28;20826;-69
2022/10/07 10:21:16;;;;;;;548.63;510.57;;;19.30;14.60;;;;;;4993754;28;20164;-69
2022/10/07 10:23:53;;;;;;;561.67;523.63;;;19.40;14.60;;;;;;4990853;28;20439;-69
2022/10/07 10:26:46;;;;;;;587.63;546.40;;;19.60;14.70;;;;;;4996380;28;20886;-69
2022/10/07 10:29:40;;;;;;;574.40;533.00;;;19.70;14.10;;;;;;4996137;28;20434;-69
2022/10/07 10:32:21;;;;;;;499.63;466.70;;;19.60;14.40;;;;;;4997755;28;20951;-69
2022/10/07 10:35:01;;;;;;;617.47;573.27;;;19.70;13.90;;;;;;4996283;28;20459;-69
2022/10/07 10:37:39;;;;;;;589.07;545.17;;;19.90;14.10;;;;;;4995971;28;20443;-69
2022/10/07 10:40:23;;;;;;;593.40;550.23;;;19.80;13.30;;;;;;4998396;28;20414;-69
2022/10/07 10:43:10;;;;;;;672.17;621.83;;;19.70;14.00;;;;;;4996658;28;20454;-69
2022/10/07 10:46:14;;;;;;;605.13;562.87;;;19.60;14.40;;;;;;4997888;28;20408;-69
2022/10/07 10:49:09;;;;;;;574.07;533.93;;;19.50;14.60;;;;;;4995804;28;20821;-69
2022/10/07 10:52:28;;;;;;;460.47;433.20;;;19.50;14.60;;;;;;4995964;28;20416;-69
2022/10/07 10:55:34;;;;;;;508.70;477.80;;;19.50;15.10;;;;;;4954671;29;20845;-69
2022/10/07 10:58:14;;;;;;;596.70;557.33;;;19.40;15.30;;;;;;4978153;28;20424;-69
2022/10/07 11:01:11;;;;;;;484.93;456.10;;;19.40;15.20;;;;;;4977116;28;20412;-69
2022/10/07 11:03:54;;;;;;;535.70;503.00;;;19.40;15.30;;;;;;4994446;28;20424;-69
2022/10/07 11:06:21;;;;;;;571.13;532.90;;;19.50;15.50;;;;;;4997176;28;21049;-69
2022/10/07 11:08:49;;;;;;;456.97;430.87;;;19.40;16.00;;;;;;4996185;28;20443;-69
2022/10/07 11:11:20;;;;;;;551.17;516.70;;;19.30;15.80;;;;;;4996041;28;20404;-69
2022/10/07 11:14:04;;;;;;;658.87;611.83;;;19.30;16.10;;;;;;4997083;28;20933;-71
2022/10/07 11:16:41;;;;;;;513.50;482.53;;;19.10;15.90;;;;;;4995565;28;20408;-69
2022/10/07 11:19:25;;;;;;;502.30;473.63;;;19.10;15.90;;;;;;4995088;28;20447;-71
2022/10/07 11:21:53;;;;;;;574.57;535.23;;;19.00;15.80;;;;;;4994711;28;20780;-70
2022/10/07 11:24:26;;;;;;;558.80;522.60;;;19.10;15.90;;;;;;4996369;28;20952;-70
2022/10/07 11:27:18;;;;;;;619.73;576.33;;;19.30;16.10;;;;;;4996658;28;20500;-68
2022/10/07 11:29:59;;;;;;;568.03;530.77;;;19.60;15.00;;;;;;4995137;28;20929;-68
2022/10/07 11:32:48;;;;;;;535.47;499.07;;;19.70;15.00;;;;;;4998192;28;20517;-69
2022/10/07 11:35:30;;;;;;;637.30;588.13;;;20.00;14.00;;;;;;4996195;28;20898;-69
2022/10/07 11:38:13;;;;;;;509.00;476.53;;;19.80;14.30;;;;;;4994315;28;20464;-69
2022/10/07 11:40:48;;;;;;;534.67;499.57;;;19.80;14.20;;;;;;4996394;28;20458;-69
2022/10/07 11:43:24;;;;;;;546.80;501.33;;;20.00;13.80;;;;;;4996391;28;20438;-69
2022/10/07 11:45:54;;;;;;;491.83;452.20;;;20.20;13.70;;;;;;4994581;28;20514;-68
2022/10/07 11:48:33;;;;;;;671.43;618.23;;;20.30;13.30;;;;;;4994872;28;20427;-68
2022/10/07 11:51:02;;;;;;;570.97;527.40;;;20.10;13.20;;;;;;4994417;28;20412;-68
2022/10/07 11:53:34;;;;;;;671.00;618.80;;;20.10;13.80;;;;;;4995937;28;20986;-68
2022/10/07 11:56:05;;;;;;;519.03;484.33;;;20.00;13.50;;;;;;4990472;28;20908;-68
2022/10/07 11:58:35;;;;;;;576.27;531.57;;;20.00;13.30;;;;;;4975162;28;20528;-68
2022/10/07 12:01:29;;;;;;;631.67;586.43;;;20.10;13.40;;;;;;4990166;28;20430;-68
2022/10/07 12:04:01;;;;;;;530.23;492.53;;;20.20;13.20;;;;;;4994125;28;20485;-69
2022/10/07 12:06:27;;;;;;;707.30;648.97;;;20.10;13.30;;;;;;4994356;28;20423;-69
2022/10/07 12:08:53;;;;;;;477.87;446.97;;;20.20;12.90;;;;;;4996339;28;20439;-69
2022/10/07 12:11:19;;;;;;;455.43;426.70;;;20.10;13.30;;;;;;4992887;28;20415;-69
2022/10/07 12:13:52;;;;;;;666.17;615.30;;;19.60;13.50;;;;;;4994420;28;20428;-69
2022/10/07 12:16:27;;;;;;;607.57;561.87;;;19.70;13.90;;;;;;4974083;28;20443;-68
2022/10/07 12:19:11;;;;;;;559.00;520.50;;;19.80;13.90;;;;;;4990643;28;20434;-70
2022/10/07 12:21:58;;;;;;;637.67;591.03;;;20.00;13.80;;;;;;4994884;28;20408;-69
2022/10/07 12:24:34;;;;;;;515.47;482.47;;;20.20;13.30;;;;;;4993926;28;20431;-69
2022/10/07 12:27:16;;;;;;;524.73;490.17;;;20.10;13.60;;;;;;4995132;28;20503;-69
2022/10/07 12:30:01;;;;;;;613.27;563.47;;;20.00;13.40;;;;;;4991724;28;21037;-70
2022/10/07 12:32:51;;;;;;;494.47;461.90;;;20.00;13.80;;;;;;4991070;28;20423;-69
2022/10/07 12:35:32;;;;;;;515.33;480.93;;;20.10;13.60;;;;;;4987150;28;20468;-69
2022/10/07 12:38:15;;;;;;;493.97;462.33;;;20.10;13.90;;;;;;4975886;28;20448;-69